Terminal Aerodrome Forecast
Issued by NWS

Home | Current Version | Previous Version | Graphics & Text | Print | Product List | Glossary On
Versions: 1 2 3 4 5 6 7 8 9 10 11 12 13 14 15
000
FTUS43 KBIS 221724
TAFJMS
TAF
KJMS 221724Z 2218/2318 10006KT P6SM VCTS SCT090CB SCT150
     FM222100 10012KT P6SM VCTS SCT090CB SCT150
     FM230000 11011KT P6SM SHRA BKN090
      TEMPO 2300/2303 4SM TSGR OVC040CB
     FM230300 10007KT P6SM VCTS SCT090CB BKN130
     FM230600 12012KT P6SM SHRA VCTS OVC090CB=

USA.gov is the U.S. government's official web portal to all federal, state and local government web resources and services.